sensor_id;sensor_type;location;lat;lon;timestamp;temperature;humidity
24518;DHT22;12678;51.336;12.406;2023-04-24T00:00:27;14.50;99.90
24518;DHT22;12678;51.336;12.406;2023-04-24T00:02:54;14.40;99.90
24518;DHT22;12678;51.336;12.406;2023-04-24T00:05:22;14.40;99.90
24518;DHT22;12678;51.336;12.406;2023-04-24T00:07:48;14.30;99.90
24518;DHT22;12678;51.336;12.406;2023-04-24T00:10:14;14.30;99.90
24518;DHT22;12678;51.336;12.406;2023-04-24T00:12:39;14.30;99.90
24518;DHT22;12678;51.336;12.406;2023-04-24T00:15:06;14.30;99.90
24518;DHT22;12678;51.336;12.406;2023-04-24T00:17:31;14.30;99.90
24518;DHT22;12678;51.336;12.406;2023-04-24T00:19:58;14.20;99.90
24518;DHT22;12678;51.336;12.406;2023-04-24T00:22:27;14.20;99.90
24518;DHT22;12678;51.336;12.406;2023-04-24T00:24:54;14.20;99.90
24518;DHT22;12678;51.336;12.406;2023-04-24T00:27:20;14.10;99.90
24518;DHT22;12678;51.336;12.406;2023-04-24T00:29:46;14.10;99.90
24518;DHT22;12678;51.336;12.406;2023-04-24T00:32:12;14.10;99.90
24518;DHT22;12678;51.336;12.406;2023-04-24T00:34:38;14.10;99.90
24518;DHT22;12678;51.336;12.406;2023-04-24T00:37:04;14.10;99.90
24518;DHT22;12678;51.336;12.406;2023-04-24T00:39:29;14.10;99.90
24518;DHT22;12678;51.336;12.406;2023-04-24T00:41:56;14.00;99.90
24518;DHT22;12678;51.336;12.406;2023-04-24T00:44:22;14.00;99.90
24518;DHT22;12678;51.336;12.406;2023-04-24T00:46:49;14.00;99.90
24518;DHT22;12678;51.336;12.406;2023-04-24T00:49:21;14.00;99.90
24518;DHT22;12678;51.336;12.406;2023-04-24T00:51:47;14.00;99.90
24518;DHT22;12678;51.336;12.406;2023-04-24T00:54:13;13.90;99.90
24518;DHT22;12678;51.336;12.406;2023-04-24T00:56:39;13.90;99.90
24518;DHT22;12678;51.336;12.406;2023-04-24T00:59:06;13.90;99.90
24518;DHT22;12678;51.336;12.406;2023-04-24T01:01:32;13.80;99.90
24518;DHT22;12678;51.336;12.406;2023-04-24T01:03:59;13.80;99.90
24518;DHT22;12678;51.336;12.406;2023-04-24T01:06:28;13.80;99.90
24518;DHT22;12678;51.336;12.406;2023-04-24T01:08:54;13.80;99.90
24518;DHT22;12678;51.336;12.406;2023-04-24T01:11:21;13.70;99.90
24518;DHT22;12678;51.336;12.406;2023-04-24T01:13:47;13.70;99.90
24518;DHT22;12678;51.336;12.406;2023-04-24T01:16:14;13.70;99.90
24518;DHT22;12678;51.336;12.406;2023-04-24T01:18:40;13.70;99.90
24518;DHT22;12678;51.336;12.406;2023-04-24T01:21:08;13.60;99.90
24518;DHT22;12678;51.336;12.406;2023-04-24T01:23:34;13.60;99.90
24518;DHT22;12678;51.336;12.406;2023-04-24T01:26:00;13.60;99.90
24518;DHT22;12678;51.336;12.406;2023-04-24T01:28:26;13.60;99.90
24518;DHT22;12678;51.336;12.406;2023-04-24T01:30:52;13.50;99.90
24518;DHT22;12678;51.336;12.406;2023-04-24T01:33:21;13.60;99.90
24518;DHT22;12678;51.336;12.406;2023-04-24T01:35:47;13.60;99.90
24518;DHT22;12678;51.336;12.406;2023-04-24T01:38:13;13.60;99.90
24518;DHT22;12678;51.336;12.406;2023-04-24T01:40:39;13.60;99.90
24518;DHT22;12678;51.336;12.406;2023-04-24T01:43:05;13.70;99.90
24518;DHT22;12678;51.336;12.406;2023-04-24T01:45:31;13.70;99.90
24518;DHT22;12678;51.336;12.406;2023-04-24T01:47:57;13.60;99.90
24518;DHT22;12678;51.336;12.406;2023-04-24T01:50:23;13.60;99.90
24518;DHT22;12678;51.336;12.406;2023-04-24T01:52:48;13.60;99.90
24518;DHT22;12678;51.336;12.406;2023-04-24T01:55:14;13.60;99.90
24518;DHT22;12678;51.336;12.406;2023-04-24T01:57:40;13.60;99.90
24518;DHT22;12678;51.336;12.406;2023-04-24T02:00:06;13.50;99.90
24518;DHT22;12678;51.336;12.406;2023-04-24T02:02:32;13.50;99.90
24518;DHT22;12678;51.336;12.406;2023-04-24T02:04:58;13.40;99.90
24518;DHT22;12678;51.336;12.406;2023-04-24T02:07:24;13.40;99.90
24518;DHT22;12678;51.336;12.406;2023-04-24T02:09:50;13.30;99.90
24518;DHT22;12678;51.336;12.406;2023-04-24T02:12:16;13.40;99.90
24518;DHT22;12678;51.336;12.406;2023-04-24T02:14:43;13.40;99.90
24518;DHT22;12678;51.336;12.406;2023-04-24T02:17:09;13.30;99.90
24518;DHT22;12678;51.336;12.406;2023-04-24T02:19:35;13.30;99.90
24518;DHT22;12678;51.336;12.406;2023-04-24T02:22:01;13.40;99.90
24518;DHT22;12678;51.336;12.406;2023-04-24T02:24:26;13.30;99.90
24518;DHT22;12678;51.336;12.406;2023-04-24T02:26:52;13.30;99.90
24518;DHT22;12678;51.336;12.406;2023-04-24T02:29:18;13.30;99.90
24518;DHT22;12678;51.336;12.406;2023-04-24T02:31:43;13.30;99.90
24518;DHT22;12678;51.336;12.406;2023-04-24T02:34:09;13.20;99.90
24518;DHT22;12678;51.336;12.406;2023-04-24T02:36:35;13.20;99.90
24518;DHT22;12678;51.336;12.406;2023-04-24T02:39:00;13.20;99.90
24518;DHT22;12678;51.336;12.406;2023-04-24T02:41:26;13.20;99.90
24518;DHT22;12678;51.336;12.406;2023-04-24T02:43:57;13.20;99.90
24518;DHT22;12678;51.336;12.406;2023-04-24T02:46:23;13.20;99.90
24518;DHT22;12678;51.336;12.406;2023-04-24T02:48:48;13.10;99.90
24518;DHT22;12678;51.336;12.406;2023-04-24T02:51:14;13.10;99.90
24518;DHT22;12678;51.336;12.406;2023-04-24T02:53:40;13.10;99.90
24518;DHT22;12678;51.336;12.406;2023-04-24T02:56:06;13.10;99.90
24518;DHT22;12678;51.336;12.406;2023-04-24T02:58:31;13.10;99.90
24518;DHT22;12678;51.336;12.406;2023-04-24T03:00:57;13.10;99.90
24518;DHT22;12678;51.336;12.406;2023-04-24T03:03:23;13.00;99.90
24518;DHT22;12678;51.336;12.406;2023-04-24T03:05:49;13.00;99.90
24518;DHT22;12678;51.336;12.406;2023-04-24T03:08:16;13.00;99.90
24518;DHT22;12678;51.336;12.406;2023-04-24T03:10:42;13.00;99.90
24518;DHT22;12678;51.336;12.406;2023-04-24T03:13:08;12.90;99.90
24518;DHT22;12678;51.336;12.406;2023-04-24T03:15:33;12.90;99.90
24518;DHT22;12678;51.336;12.406;2023-04-24T03:17:59;12.90;99.90
24518;DHT22;12678;51.336;12.406;2023-04-24T03:20:26;12.90;99.90
24518;DHT22;12678;51.336;12.406;2023-04-24T03:22:52;12.90;99.90
24518;DHT22;12678;51.336;12.406;2023-04-24T03:25:18;12.90;99.90
24518;DHT22;12678;51.336;12.406;2023-04-24T03:27:43;12.90;99.90
24518;DHT22;12678;51.336;12.406;2023-04-24T03:30:10;12.90;99.90
24518;DHT22;12678;51.336;12.406;2023-04-24T03:32:36;12.90;99.90
24518;DHT22;12678;51.336;12.406;2023-04-24T03:35:02;12.80;99.90
24518;DHT22;12678;51.336;12.406;2023-04-24T03:37:28;12.80;99.90
24518;DHT22;12678;51.336;12.406;2023-04-24T03:39:54;12.80;99.90
24518;DHT22;12678;51.336;12.406;2023-04-24T03:42:19;12.80;99.90
24518;DHT22;12678;51.336;12.406;2023-04-24T03:44:45;12.80;99.90
24518;DHT22;12678;51.336;12.406;2023-04-24T03:47:11;12.80;99.90
24518;DHT22;12678;51.336;12.406;2023-04-24T03:49:37;12.80;99.90
24518;DHT22;12678;51.336;12.406;2023-04-24T03:52:03;12.80;99.90
24518;DHT22;12678;51.336;12.406;2023-04-24T03:54:28;12.80;99.90
24518;DHT22;12678;51.336;12.406;2023-04-24T03:56:54;12.80;99.90
24518;DHT22;12678;51.336;12.406;2023-04-24T03:59:20;12.80;99.90
24518;DHT22;12678;51.336;12.406;2023-04-24T04:01:45;12.80;99.90
24518;DHT22;12678;51.336;12.406;2023-04-24T04:04:11;12.80;99.90
24518;DHT22;12678;51.336;12.406;2023-04-24T04:06:37;12.80;99.90
24518;DHT22;12678;51.336;12.406;2023-04-24T04:09:03;12.80;99.90
24518;DHT22;12678;51.336;12.406;2023-04-24T04:11:29;12.80;99.90
24518;DHT22;12678;51.336;12.406;2023-04-24T04:13:55;12.80;99.90
24518;DHT22;12678;51.336;12.406;2023-04-24T04:16:22;12.80;99.90
24518;DHT22;12678;51.336;12.406;2023-04-24T04:18:47;12.80;99.90
24518;DHT22;12678;51.336;12.406;2023-04-24T04:21:13;12.70;99.90
24518;DHT22;12678;51.336;12.406;2023-04-24T04:23:39;12.80;99.90
24518;DHT22;12678;51.336;12.406;2023-04-24T04:26:05;12.80;99.90
24518;DHT22;12678;51.336;12.406;2023-04-24T04:28:32;12.80;99.90
24518;DHT22;12678;51.336;12.406;2023-04-24T04:30:58;12.80;99.90
24518;DHT22;12678;51.336;12.406;2023-04-24T04:33:24;12.90;99.90
24518;DHT22;12678;51.336;12.406;2023-04-24T04:35:50;12.90;99.90
24518;DHT22;12678;51.336;12.406;2023-04-24T04:38:20;13.00;99.90
24518;DHT22;12678;51.336;12.406;2023-04-24T04:40:46;13.00;99.90
24518;DHT22;12678;51.336;12.406;2023-04-24T04:43:12;13.00;99.90
24518;DHT22;12678;51.336;12.406;2023-04-24T04:45:38;13.10;99.90
24518;DHT22;12678;51.336;12.406;2023-04-24T04:48:06;13.10;99.90
24518;DHT22;12678;51.336;12.406;2023-04-24T04:50:34;13.10;99.90
24518;DHT22;12678;51.336;12.406;2023-04-24T04:53:00;13.20;99.90
24518;DHT22;12678;51.336;12.406;2023-04-24T04:55:26;13.20;99.90
24518;DHT22;12678;51.336;12.406;2023-04-24T04:57:52;13.20;99.90
24518;DHT22;12678;51.336;12.406;2023-04-24T05:00:18;13.20;99.90
24518;DHT22;12678;51.336;12.406;2023-04-24T05:02:44;13.30;99.90
24518;DHT22;12678;51.336;12.406;2023-04-24T05:05:10;13.40;99.90
24518;DHT22;12678;51.336;12.406;2023-04-24T05:07:36;13.40;99.90
24518;DHT22;12678;51.336;12.406;2023-04-24T05:10:02;13.40;99.90
24518;DHT22;12678;51.336;12.406;2023-04-24T05:12:28;13.50;99.90
24518;DHT22;12678;51.336;12.406;2023-04-24T05:14:53;13.50;99.90
24518;DHT22;12678;51.336;12.406;2023-04-24T05:17:19;13.60;99.90
24518;DHT22;12678;51.336;12.406;2023-04-24T05:19:45;13.60;99.90
24518;DHT22;12678;51.336;12.406;2023-04-24T05:22:11;13.70;99.90
24518;DHT22;12678;51.336;12.406;2023-04-24T05:24:38;13.70;99.90
24518;DHT22;12678;51.336;12.406;2023-04-24T05:27:04;13.70;99.90
24518;DHT22;12678;51.336;12.406;2023-04-24T05:29:32;13.90;99.90
24518;DHT22;12678;51.336;12.406;2023-04-24T05:31:59;13.90;99.90
24518;DHT22;12678;51.336;12.406;2023-04-24T05:34:25;13.90;99.90
24518;DHT22;12678;51.336;12.406;2023-04-24T05:36:51;13.90;99.90
24518;DHT22;12678;51.336;12.406;2023-04-24T05:39:17;14.00;99.90
24518;DHT22;12678;51.336;12.406;2023-04-24T05:41:43;14.10;99.90
24518;DHT22;12678;51.336;12.406;2023-04-24T05:44:09;14.20;99.90
24518;DHT22;12678;51.336;12.406;2023-04-24T05:46:35;14.20;99.90
24518;DHT22;12678;51.336;12.406;2023-04-24T05:49:01;14.20;99.90
24518;DHT22;12678;51.336;12.406;2023-04-24T05:51:28;14.20;99.90
24518;DHT22;12678;51.336;12.406;2023-04-24T05:53:53;14.20;99.90
24518;DHT22;12678;51.336;12.406;2023-04-24T05:56:19;14.20;99.90
24518;DHT22;12678;51.336;12.406;2023-04-24T05:58:46;14.30;99.90
24518;DHT22;12678;51.336;12.406;2023-04-24T06:01:12;14.40;99.90
24518;DHT22;12678;51.336;12.406;2023-04-24T06:03:38;14.40;99.90
24518;DHT22;12678;51.336;12.406;2023-04-24T06:06:06;14.50;99.90
24518;DHT22;12678;51.336;12.406;2023-04-24T06:08:31;14.60;99.90
24518;DHT22;12678;51.336;12.406;2023-04-24T06:10:58;14.60;99.90
24518;DHT22;12678;51.336;12.406;2023-04-24T06:13:24;14.70;99.90
24518;DHT22;12678;51.336;12.406;2023-04-24T06:15:50;14.80;99.90
24518;DHT22;12678;51.336;12.406;2023-04-24T06:18:16;14.80;99.90
24518;DHT22;12678;51.336;12.406;2023-04-24T06:20:42;14.90;99.90
24518;DHT22;12678;51.336;12.406;2023-04-24T06:23:07;15.00;99.90
24518;DHT22;12678;51.336;12.406;2023-04-24T06:25:33;15.10;99.90
24518;DHT22;12678;51.336;12.406;2023-04-24T06:27:59;15.10;99.90
24518;DHT22;12678;51.336;12.406;2023-04-24T06:30:25;15.00;99.90
24518;DHT22;12678;51.336;12.406;2023-04-24T06:32:51;14.90;99.90
24518;DHT22;12678;51.336;12.406;2023-04-24T06:35:16;14.80;99.90
24518;DHT22;12678;51.336;12.406;2023-04-24T06:37:43;14.80;99.90
24518;DHT22;12678;51.336;12.406;2023-04-24T06:40:09;14.80;99.90
24518;DHT22;12678;51.336;12.406;2023-04-24T06:42:36;14.70;99.90
24518;DHT22;12678;51.336;12.406;2023-04-24T06:45:02;14.70;99.90
24518;DHT22;12678;51.336;12.406;2023-04-24T06:47:29;14.60;99.90
24518;DHT22;12678;51.336;12.406;2023-04-24T06:49:56;14.50;99.90
24518;DHT22;12678;51.336;12.406;2023-04-24T06:52:22;14.40;99.90
24518;DHT22;12678;51.336;12.406;2023-04-24T06:54:48;14.40;99.90
24518;DHT22;12678;51.336;12.406;2023-04-24T06:57:13;14.40;99.90
24518;DHT22;12678;51.336;12.406;2023-04-24T06:59:41;14.50;99.90
24518;DHT22;12678;51.336;12.406;2023-04-24T07:02:07;14.50;99.90
24518;DHT22;12678;51.336;12.406;2023-04-24T07:04:33;14.50;99.90
24518;DHT22;12678;51.336;12.406;2023-04-24T07:06:59;14.60;99.90
24518;DHT22;12678;51.336;12.406;2023-04-24T07:09:25;14.60;99.90
24518;DHT22;12678;51.336;12.406;2023-04-24T07:11:52;14.60;99.90
24518;DHT22;12678;51.336;12.406;2023-04-24T07:14:18;14.60;99.90
24518;DHT22;12678;51.336;12.406;2023-04-24T07:16:44;14.60;99.90
24518;DHT22;12678;51.336;12.406;2023-04-24T07:19:11;14.70;99.90
24518;DHT22;12678;51.336;12.406;2023-04-24T07:21:36;14.60;99.90
24518;DHT22;12678;51.336;12.406;2023-04-24T07:24:02;14.70;99.90
24518;DHT22;12678;51.336;12.406;2023-04-24T07:26:31;14.80;99.90
24518;DHT22;12678;51.336;12.406;2023-04-24T07:28:57;14.90;99.90
24518;DHT22;12678;51.336;12.406;2023-04-24T07:31:22;15.00;99.90
24518;DHT22;12678;51.336;12.406;2023-04-24T07:33:48;15.20;99.90
24518;DHT22;12678;51.336;12.406;2023-04-24T07:36:14;15.30;99.90
24518;DHT22;12678;51.336;12.406;2023-04-24T07:38:47;15.50;99.90
24518;DHT22;12678;51.336;12.406;2023-04-24T07:41:13;15.70;99.90
24518;DHT22;12678;51.336;12.406;2023-04-24T07:43:39;15.90;99.90
24518;DHT22;12678;51.336;12.406;2023-04-24T07:46:06;15.80;99.90
24518;DHT22;12678;51.336;12.406;2023-04-24T07:48:32;15.90;99.90
24518;DHT22;12678;51.336;12.406;2023-04-24T07:50:58;15.90;99.90
24518;DHT22;12678;51.336;12.406;2023-04-24T07:53:25;16.10;99.90
24518;DHT22;12678;51.336;12.406;2023-04-24T07:55:51;16.00;99.90
24518;DHT22;12678;51.336;12.406;2023-04-24T07:58:16;15.90;99.90
24518;DHT22;12678;51.336;12.406;2023-04-24T08:00:42;16.00;99.90
24518;DHT22;12678;51.336;12.406;2023-04-24T08:03:08;16.00;99.90
24518;DHT22;12678;51.336;12.406;2023-04-24T08:05:34;16.40;99.90
24518;DHT22;12678;51.336;12.406;2023-04-24T08:07:59;16.90;99.90
24518;DHT22;12678;51.336;12.406;2023-04-24T08:10:26;17.30;99.90
24518;DHT22;12678;51.336;12.406;2023-04-24T08:12:51;17.60;99.90
24518;DHT22;12678;51.336;12.406;2023-04-24T08:15:17;17.80;99.90
24518;DHT22;12678;51.336;12.406;2023-04-24T08:17:46;18.00;99.90
24518;DHT22;12678;51.336;12.406;2023-04-24T08:20:12;17.90;99.90
24518;DHT22;12678;51.336;12.406;2023-04-24T08:22:41;17.80;99.90
24518;DHT22;12678;51.336;12.406;2023-04-24T08:25:08;17.90;99.90
24518;DHT22;12678;51.336;12.406;2023-04-24T08:27:34;18.00;99.90
24518;DHT22;12678;51.336;12.406;2023-04-24T08:30:00;18.20;99.90
24518;DHT22;12678;51.336;12.406;2023-04-24T08:32:26;18.10;99.90
24518;DHT22;12678;51.336;12.406;2023-04-24T08:34:56;17.90;99.90
24518;DHT22;12678;51.336;12.406;2023-04-24T08:37:22;17.80;99.90
24518;DHT22;12678;51.336;12.406;2023-04-24T08:39:49;17.60;99.90
24518;DHT22;12678;51.336;12.406;2023-04-24T08:42:17;17.60;99.90
24518;DHT22;12678;51.336;12.406;2023-04-24T08:44:43;17.60;99.90
24518;DHT22;12678;51.336;12.406;2023-04-24T08:47:10;17.50;99.90
24518;DHT22;12678;51.336;12.406;2023-04-24T08:49:38;17.40;99.90
24518;DHT22;12678;51.336;12.406;2023-04-24T08:52:05;17.40;99.90
24518;DHT22;12678;51.336;12.406;2023-04-24T08:54:31;17.30;99.90
24518;DHT22;12678;51.336;12.406;2023-04-24T08:57:01;17.40;99.90
24518;DHT22;12678;51.336;12.406;2023-04-24T08:59:28;17.60;99.90
24518;DHT22;12678;51.336;12.406;2023-04-24T09:01:55;18.00;99.90
24518;DHT22;12678;51.336;12.406;2023-04-24T09:04:22;18.60;99.90
24518;DHT22;12678;51.336;12.406;2023-04-24T09:06:50;19.20;99.90
24518;DHT22;12678;51.336;12.406;2023-04-24T09:09:17;19.50;99.90
24518;DHT22;12678;51.336;12.406;2023-04-24T09:11:44;19.80;99.90
24518;DHT22;12678;51.336;12.406;2023-04-24T09:14:10;19.60;99.90
24518;DHT22;12678;51.336;12.406;2023-04-24T09:16:36;19.40;99.90
24518;DHT22;12678;51.336;12.406;2023-04-24T09:19:02;19.00;99.90
24518;DHT22;12678;51.336;12.406;2023-04-24T09:21:33;18.50;99.90
24518;DHT22;12678;51.336;12.406;2023-04-24T09:24:00;18.20;99.90
24518;DHT22;12678;51.336;12.406;2023-04-24T09:26:30;17.90;99.90
24518;DHT22;12678;51.336;12.406;2023-04-24T09:28:59;17.80;99.90
24518;DHT22;12678;51.336;12.406;2023-04-24T09:31:27;17.50;99.90
24518;DHT22;12678;51.336;12.406;2023-04-24T09:33:58;17.30;99.90
24518;DHT22;12678;51.336;12.406;2023-04-24T09:36:34;17.10;99.90
24518;DHT22;12678;51.336;12.406;2023-04-24T09:39:05;17.00;99.90
24518;DHT22;12678;51.336;12.406;2023-04-24T09:41:32;16.90;99.90
24518;DHT22;12678;51.336;12.406;2023-04-24T09:44:22;16.80;99.90
24518;DHT22;12678;51.336;12.406;2023-04-24T09:46:51;16.80;99.90
24518;DHT22;12678;51.336;12.406;2023-04-24T09:49:30;16.70;99.90
24518;DHT22;12678;51.336;12.406;2023-04-24T09:52:07;16.70;99.90
24518;DHT22;12678;51.336;12.406;2023-04-24T09:54:33;16.70;99.90
24518;DHT22;12678;51.336;12.406;2023-04-24T09:56:59;16.60;99.90
24518;DHT22;12678;51.336;12.406;2023-04-24T09:59:29;16.40;99.90
24518;DHT22;12678;51.336;12.406;2023-04-24T10:01:55;16.50;99.90
24518;DHT22;12678;51.336;12.406;2023-04-24T10:04:24;16.50;99.90
24518;DHT22;12678;51.336;12.406;2023-04-24T10:06:51;16.70;99.90
24518;DHT22;12678;51.336;12.406;2023-04-24T10:09:19;17.00;99.90
24518;DHT22;12678;51.336;12.406;2023-04-24T10:11:46;17.40;99.90
24518;DHT22;12678;51.336;12.406;2023-04-24T10:14:25;17.60;99.90
24518;DHT22;12678;51.336;12.406;2023-04-24T10:16:54;17.70;99.90
24518;DHT22;12678;51.336;12.406;2023-04-24T10:19:20;17.50;99.90
24518;DHT22;12678;51.336;12.406;2023-04-24T10:21:48;17.30;99.90
24518;DHT22;12678;51.336;12.406;2023-04-24T10:24:15;17.30;99.90
24518;DHT22;12678;51.336;12.406;2023-04-24T10:26:41;17.30;99.90
24518;DHT22;12678;51.336;12.406;2023-04-24T10:29:07;17.20;99.90
24518;DHT22;12678;51.336;12.406;2023-04-24T10:31:36;17.20;99.90
24518;DHT22;12678;51.336;12.406;2023-04-24T10:34:03;17.10;99.90
24518;DHT22;12678;51.336;12.406;2023-04-24T10:36:30;17.20;99.90
24518;DHT22;12678;51.336;12.406;2023-04-24T10:38:59;17.50;99.90
24518;DHT22;12678;51.336;12.406;2023-04-24T10:41:26;17.80;99.40
24518;DHT22;12678;51.336;12.406;2023-04-24T10:44:08;18.00;98.60
24518;DHT22;12678;51.336;12.406;2023-04-24T10:46:34;18.00;96.50
24518;DHT22;12678;51.336;12.406;2023-04-24T10:49:04;17.90;98.00
24518;DHT22;12678;51.336;12.406;2023-04-24T10:51:51;18.10;97.00
24518;DHT22;12678;51.336;12.406;2023-04-24T10:54:41;18.10;95.70
24518;DHT22;12678;51.336;12.406;2023-04-24T10:59:50;18.10;93.90
24518;DHT22;12678;51.336;12.406;2023-04-24T11:02:17;18.20;94.80
24518;DHT22;12678;51.336;12.406;2023-04-24T11:04:44;18.30;93.70
24518;DHT22;12678;51.336;12.406;2023-04-24T11:07:12;18.50;92.90
24518;DHT22;12678;51.336;12.406;2023-04-24T11:09:38;18.50;92.30
24518;DHT22;12678;51.336;12.406;2023-04-24T11:12:09;18.50;92.90
24518;DHT22;12678;51.336;12.406;2023-04-24T11:17:35;18.60;92.00
24518;DHT22;12678;51.336;12.406;2023-04-24T11:20:07;18.50;92.40
24518;DHT22;12678;51.336;12.406;2023-04-24T11:22:35;18.50;92.30
24518;DHT22;12678;51.336;12.406;2023-04-24T11:25:03;18.60;92.30
24518;DHT22;12678;51.336;12.406;2023-04-24T11:30:06;18.70;90.30
24518;DHT22;12678;51.336;12.406;2023-04-24T11:32:40;19.00;90.10
24518;DHT22;12678;51.336;12.406;2023-04-24T11:35:18;19.10;87.00
24518;DHT22;12678;51.336;12.406;2023-04-24T11:37:51;19.10;86.90
24518;DHT22;12678;51.336;12.406;2023-04-24T11:40:18;19.10;85.20
24518;DHT22;12678;51.336;12.406;2023-04-24T11:42:49;18.90;83.60
24518;DHT22;12678;51.336;12.406;2023-04-24T11:45:35;18.60;84.70
24518;DHT22;12678;51.336;12.406;2023-04-24T11:48:02;18.60;84.60
24518;DHT22;12678;51.336;12.406;2023-04-24T11:50:28;18.60;84.30
24518;DHT22;12678;51.336;12.406;2023-04-24T11:52:55;18.40;83.00
24518;DHT22;12678;51.336;12.406;2023-04-24T11:57:52;18.20;87.30
24518;DHT22;12678;51.336;12.406;2023-04-24T12:00:21;18.00;84.90
24518;DHT22;12678;51.336;12.406;2023-04-24T12:02:47;18.10;84.90
24518;DHT22;12678;51.336;12.406;2023-04-24T12:05:23;18.10;85.70
24518;DHT22;12678;51.336;12.406;2023-04-24T12:07:50;18.20;85.80
24518;DHT22;12678;51.336;12.406;2023-04-24T12:10:20;18.10;84.00
24518;DHT22;12678;51.336;12.406;2023-04-24T12:12:46;18.10;83.50
24518;DHT22;12678;51.336;12.406;2023-04-24T12:15:12;18.00;83.00
24518;DHT22;12678;51.336;12.406;2023-04-24T12:17:41;17.90;83.00
24518;DHT22;12678;51.336;12.406;2023-04-24T12:20:08;17.70;82.30
24518;DHT22;12678;51.336;12.406;2023-04-24T12:22:50;17.80;84.40
24518;DHT22;12678;51.336;12.406;2023-04-24T12:25:18;17.80;83.60
24518;DHT22;12678;51.336;12.406;2023-04-24T12:27:45;17.80;84.50
24518;DHT22;12678;51.336;12.406;2023-04-24T12:30:14;17.80;86.90
24518;DHT22;12678;51.336;12.406;2023-04-24T12:32:46;17.80;85.20
24518;DHT22;12678;51.336;12.406;2023-04-24T12:35:12;17.80;84.20
24518;DHT22;12678;51.336;12.406;2023-04-24T12:37:37;17.80;85.20
24518;DHT22;12678;51.336;12.406;2023-04-24T12:40:09;17.80;83.90
24518;DHT22;12678;51.336;12.406;2023-04-24T12:42:42;17.80;84.60
24518;DHT22;12678;51.336;12.406;2023-04-24T12:45:08;17.90;83.80
24518;DHT22;12678;51.336;12.406;2023-04-24T12:47:34;17.90;82.30
24518;DHT22;12678;51.336;12.406;2023-04-24T12:50:01;17.90;81.60
24518;DHT22;12678;51.336;12.406;2023-04-24T12:52:28;17.90;81.30
24518;DHT22;12678;51.336;12.406;2023-04-24T12:54:55;18.00;82.50
24518;DHT22;12678;51.336;12.406;2023-04-24T12:57:25;18.00;81.30
24518;DHT22;12678;51.336;12.406;2023-04-24T12:59:55;17.90;80.80
24518;DHT22;12678;51.336;12.406;2023-04-24T13:02:22;17.70;81.00
24518;DHT22;12678;51.336;12.406;2023-04-24T13:04:49;17.70;82.40
24518;DHT22;12678;51.336;12.406;2023-04-24T13:07:15;17.70;84.10
24518;DHT22;12678;51.336;12.406;2023-04-24T13:09:42;17.50;81.60
24518;DHT22;12678;51.336;12.406;2023-04-24T13:12:08;17.50;80.40
24518;DHT22;12678;51.336;12.406;2023-04-24T13:14:34;17.50;81.20
24518;DHT22;12678;51.336;12.406;2023-04-24T13:17:00;17.60;81.10
24518;DHT22;12678;51.336;12.406;2023-04-24T13:19:27;17.60;79.70
24518;DHT22;12678;51.336;12.406;2023-04-24T13:21:55;17.60;80.20
24518;DHT22;12678;51.336;12.406;2023-04-24T13:24:24;17.60;80.00
24518;DHT22;12678;51.336;12.406;2023-04-24T13:26:50;17.60;79.90
24518;DHT22;12678;51.336;12.406;2023-04-24T13:29:17;17.50;80.60
24518;DHT22;12678;51.336;12.406;2023-04-24T13:31:42;17.60;80.10
24518;DHT22;12678;51.336;12.406;2023-04-24T13:34:08;17.60;80.40
24518;DHT22;12678;51.336;12.406;2023-04-24T13:36:33;17.80;80.90
24518;DHT22;12678;51.336;12.406;2023-04-24T13:38:59;17.90;80.70
24518;DHT22;12678;51.336;12.406;2023-04-24T13:41:25;17.90;80.10
24518;DHT22;12678;51.336;12.406;2023-04-24T13:43:50;17.90;79.70
24518;DHT22;12678;51.336;12.406;2023-04-24T13:46:16;17.90;82.00
24518;DHT22;12678;51.336;12.406;2023-04-24T13:48:42;17.80;80.00
24518;DHT22;12678;51.336;12.406;2023-04-24T13:51:07;17.80;79.50
24518;DHT22;12678;51.336;12.406;2023-04-24T13:53:33;17.80;79.40
24518;DHT22;12678;51.336;12.406;2023-04-24T13:56:03;17.70;81.30
24518;DHT22;12678;51.336;12.406;2023-04-24T13:58:29;17.60;80.60
24518;DHT22;12678;51.336;12.406;2023-04-24T14:00:55;17.40;83.00
24518;DHT22;12678;51.336;12.406;2023-04-24T14:03:20;17.30;81.60
24518;DHT22;12678;51.336;12.406;2023-04-24T14:05:46;17.10;82.90
24518;DHT22;12678;51.336;12.406;2023-04-24T14:08:12;17.10;84.40
24518;DHT22;12678;51.336;12.406;2023-04-24T14:10:37;17.10;85.20
24518;DHT22;12678;51.336;12.406;2023-04-24T14:13:03;17.00;81.40
24518;DHT22;12678;51.336;12.406;2023-04-24T14:15:29;17.10;82.10
24518;DHT22;12678;51.336;12.406;2023-04-24T14:17:55;17.20;82.30
24518;DHT22;12678;51.336;12.406;2023-04-24T14:20:20;17.30;83.20
24518;DHT22;12678;51.336;12.406;2023-04-24T14:22:46;17.40;81.90
24518;DHT22;12678;51.336;12.406;2023-04-24T14:25:12;17.30;81.30
24518;DHT22;12678;51.336;12.406;2023-04-24T14:27:37;17.30;82.40
24518;DHT22;12678;51.336;12.406;2023-04-24T14:30:04;17.30;82.40
24518;DHT22;12678;51.336;12.406;2023-04-24T14:32:29;17.20;83.40
24518;DHT22;12678;51.336;12.406;2023-04-24T14:34:55;17.10;83.60
24518;DHT22;12678;51.336;12.406;2023-04-24T14:37:21;17.00;84.70
24518;DHT22;12678;51.336;12.406;2023-04-24T14:39:46;17.00;87.10
24518;DHT22;12678;51.336;12.406;2023-04-24T14:42:12;17.00;86.50
24518;DHT22;12678;51.336;12.406;2023-04-24T14:44:38;17.00;86.60
24518;DHT22;12678;51.336;12.406;2023-04-24T14:47:04;17.00;85.90
24518;DHT22;12678;51.336;12.406;2023-04-24T14:49:30;16.90;85.10
24518;DHT22;12678;51.336;12.406;2023-04-24T14:51:56;16.80;86.00
24518;DHT22;12678;51.336;12.406;2023-04-24T14:54:21;16.80;88.20
24518;DHT22;12678;51.336;12.406;2023-04-24T14:56:49;16.70;89.00
24518;DHT22;12678;51.336;12.406;2023-04-24T14:59:15;16.60;89.40
24518;DHT22;12678;51.336;12.406;2023-04-24T15:01:41;16.40;90.30
24518;DHT22;12678;51.336;12.406;2023-04-24T15:04:07;16.30;90.90
24518;DHT22;12678;51.336;12.406;2023-04-24T15:06:33;16.10;91.80
24518;DHT22;12678;51.336;12.406;2023-04-24T15:08:59;16.00;92.50
24518;DHT22;12678;51.336;12.406;2023-04-24T15:11:25;15.90;92.20
24518;DHT22;12678;51.336;12.406;2023-04-24T15:13:51;15.70;92.20
24518;DHT22;12678;51.336;12.406;2023-04-24T15:16:17;15.60;92.30
24518;DHT22;12678;51.336;12.406;2023-04-24T15:18:43;15.70;92.90
24518;DHT22;12678;51.336;12.406;2023-04-24T15:21:09;15.70;92.90
24518;DHT22;12678;51.336;12.406;2023-04-24T15:23:35;15.70;92.80